sensor_id;sensor_type;location;lat;lon;timestamp;P1;durP1;ratioP1;P2;durP2;ratioP2
11685;SDS011;5899;51.282;6.094;2023-07-20T00:00:14;4.30;;;3.72;;
11685;SDS011;5899;51.282;6.094;2023-07-20T00:08:28;5.47;;;3.50;;
11685;SDS011;5899;51.282;6.094;2023-07-20T00:09:58;5.47;;;3.65;;
11685;SDS011;5899;51.282;6.094;2023-07-20T00:12:35;5.38;;;3.83;;
11685;SDS011;5899;51.282;6.094;2023-07-20T00:18:26;5.65;;;4.15;;
11685;SDS011;5899;51.282;6.094;2023-07-20T00:21:37;5.35;;;3.97;;
11685;SDS011;5899;51.282;6.094;2023-07-20T00:24:10;5.03;;;3.60;;
11685;SDS011;5899;51.282;6.094;2023-07-20T00:26:45;4.15;;;3.45;;
11685;SDS011;5899;51.282;6.094;2023-07-20T00:29:21;4.50;;;3.60;;
11685;SDS011;5899;51.282;6.094;2023-07-20T00:32:06;4.88;;;3.67;;
11685;SDS011;5899;51.282;6.094;2023-07-20T00:34:49;4.22;;;3.55;;
11685;SDS011;5899;51.282;6.094;2023-07-20T00:38:20;3.58;;;3.25;;
11685;SDS011;5899;51.282;6.094;2023-07-20T00:40:43;4.25;;;3.15;;
11685;SDS011;5899;51.282;6.094;2023-07-20T00:43:09;4.18;;;3.78;;
11685;SDS011;5899;51.282;6.094;2023-07-20T00:55:10;4.18;;;3.50;;
11685;SDS011;5899;51.282;6.094;2023-07-20T00:57:45;3.88;;;3.25;;
11685;SDS011;5899;51.282;6.094;2023-07-20T01:00:32;3.45;;;2.92;;
11685;SDS011;5899;51.282;6.094;2023-07-20T01:03:21;5.45;;;3.20;;
11685;SDS011;5899;51.282;6.094;2023-07-20T01:05:54;3.90;;;3.13;;
11685;SDS011;5899;51.282;6.094;2023-07-20T01:08:50;3.13;;;2.83;;
11685;SDS011;5899;51.282;6.094;2023-07-20T01:17:34;4.03;;;3.00;;
11685;SDS011;5899;51.282;6.094;2023-07-20T01:26:24;5.32;;;3.28;;
11685;SDS011;5899;51.282;6.094;2023-07-20T01:32:00;4.73;;;3.00;;
11685;SDS011;5899;51.282;6.094;2023-07-20T01:34:47;4.32;;;3.40;;
11685;SDS011;5899;51.282;6.094;2023-07-20T01:37:20;4.33;;;3.37;;
11685;SDS011;5899;51.282;6.094;2023-07-20T01:40:19;4.65;;;3.30;;
11685;SDS011;5899;51.282;6.094;2023-07-20T01:42:47;3.42;;;3.13;;
11685;SDS011;5899;51.282;6.094;2023-07-20T02:12:19;4.43;;;3.67;;
11685;SDS011;5899;51.282;6.094;2023-07-20T02:21:29;5.03;;;3.50;;
11685;SDS011;5899;51.282;6.094;2023-07-20T02:24:31;3.42;;;2.92;;
11685;SDS011;5899;51.282;6.094;2023-07-20T02:36:23;5.90;;;3.88;;
11685;SDS011;5899;51.282;6.094;2023-07-20T04:08:15;9.32;;;6.22;;
11685;SDS011;5899;51.282;6.094;2023-07-20T04:23:29;7.68;;;5.68;;
11685;SDS011;5899;51.282;6.094;2023-07-20T04:36:21;10.23;;;8.10;;
11685;SDS011;5899;51.282;6.094;2023-07-20T04:50:01;12.27;;;7.83;;
11685;SDS011;5899;51.282;6.094;2023-07-20T04:52:53;10.13;;;7.82;;
11685;SDS011;5899;51.282;6.094;2023-07-20T04:59:29;9.65;;;7.30;;
11685;SDS011;5899;51.282;6.094;2023-07-20T05:08:41;10.60;;;8.10;;
11685;SDS011;5899;51.282;6.094;2023-07-20T05:20:42;12.95;;;8.40;;
11685;SDS011;5899;51.282;6.094;2023-07-20T05:29:31;12.55;;;9.30;;
11685;SDS011;5899;51.282;6.094;2023-07-20T05:34:30;11.05;;;7.95;;
11685;SDS011;5899;51.282;6.094;2023-07-20T05:58:54;10.57;;;9.33;;
11685;SDS011;5899;51.282;6.094;2023-07-20T06:01:36;12.25;;;9.20;;
11685;SDS011;5899;51.282;6.094;2023-07-20T06:04:22;9.82;;;8.43;;
11685;SDS011;5899;51.282;6.094;2023-07-20T06:07:00;7.53;;;6.82;;
11685;SDS011;5899;51.282;6.094;2023-07-20T06:09:30;8.05;;;6.90;;
11685;SDS011;5899;51.282;6.094;2023-07-20T06:12:02;9.25;;;7.60;;
11685;SDS011;5899;51.282;6.094;2023-07-20T06:14:30;10.10;;;8.00;;
11685;SDS011;5899;51.282;6.094;2023-07-20T06:16:59;8.18;;;7.35;;
11685;SDS011;5899;51.282;6.094;2023-07-20T06:19:42;8.53;;;6.93;;
11685;SDS011;5899;51.282;6.094;2023-07-20T06:22:24;8.90;;;7.60;;
11685;SDS011;5899;51.282;6.094;2023-07-20T06:24:57;9.60;;;7.28;;
11685;SDS011;5899;51.282;6.094;2023-07-20T06:27:26;9.15;;;7.13;;
11685;SDS011;5899;51.282;6.094;2023-07-20T06:30:18;8.98;;;6.90;;
11685;SDS011;5899;51.282;6.094;2023-07-20T06:33:07;7.90;;;7.15;;
11685;SDS011;5899;51.282;6.094;2023-07-20T06:35:43;8.77;;;6.73;;
11685;SDS011;5899;51.282;6.094;2023-07-20T06:38:15;7.35;;;6.65;;
11685;SDS011;5899;51.282;6.094;2023-07-20T06:40:52;8.48;;;7.22;;
11685;SDS011;5899;51.282;6.094;2023-07-20T06:46:38;7.50;;;6.80;;
11685;SDS011;5899;51.282;6.094;2023-07-20T06:49:33;7.43;;;6.68;;
11685;SDS011;5899;51.282;6.094;2023-07-20T06:52:02;9.18;;;7.00;;
11685;SDS011;5899;51.282;6.094;2023-07-20T06:54:43;7.47;;;6.78;;
11685;SDS011;5899;51.282;6.094;2023-07-20T06:57:36;7.05;;;6.07;;
11685;SDS011;5899;51.282;6.094;2023-07-20T07:00:23;7.60;;;6.15;;
11685;SDS011;5899;51.282;6.094;2023-07-20T07:02:53;5.80;;;5.23;;
11685;SDS011;5899;51.282;6.094;2023-07-20T07:05:19;5.65;;;5.15;;
11685;SDS011;5899;51.282;6.094;2023-07-20T07:07:51;5.35;;;4.80;;
11685;SDS011;5899;51.282;6.094;2023-07-20T07:10:18;5.55;;;5.03;;
11685;SDS011;5899;51.282;6.094;2023-07-20T07:12:49;5.18;;;4.68;;
11685;SDS011;5899;51.282;6.094;2023-07-20T07:15:22;5.13;;;4.22;;
11685;SDS011;5899;51.282;6.094;2023-07-20T07:18:02;5.35;;;4.15;;
11685;SDS011;5899;51.282;6.094;2023-07-20T07:26:25;3.55;;;3.13;;
11685;SDS011;5899;51.282;6.094;2023-07-20T07:29:02;4.18;;;3.80;;
11685;SDS011;5899;51.282;6.094;2023-07-20T07:31:40;4.30;;;3.90;;
11685;SDS011;5899;51.282;6.094;2023-07-20T07:34:33;5.07;;;4.57;;
11685;SDS011;5899;51.282;6.094;2023-07-20T07:37:07;4.15;;;3.75;;
11685;SDS011;5899;51.282;6.094;2023-07-20T07:42:59;2.72;;;2.47;;
11685;SDS011;5899;51.282;6.094;2023-07-20T07:45:30;2.37;;;2.17;;
11685;SDS011;5899;51.282;6.094;2023-07-20T07:48:05;2.57;;;2.37;;
11685;SDS011;5899;51.282;6.094;2023-07-20T07:50:33;2.80;;;2.60;;
11685;SDS011;5899;51.282;6.094;2023-07-20T07:53:00;3.53;;;3.10;;
11685;SDS011;5899;51.282;6.094;2023-07-20T07:55:27;3.25;;;2.97;;
11685;SDS011;5899;51.282;6.094;2023-07-20T07:57:55;4.13;;;3.25;;
11685;SDS011;5899;51.282;6.094;2023-07-20T08:00:30;3.90;;;2.75;;
11685;SDS011;5899;51.282;6.094;2023-07-20T08:03:05;2.95;;;2.60;;
11685;SDS011;5899;51.282;6.094;2023-07-20T08:05:38;2.92;;;2.67;;
11685;SDS011;5899;51.282;6.094;2023-07-20T08:08:07;2.50;;;2.30;;
11685;SDS011;5899;51.282;6.094;2023-07-20T08:10:34;2.17;;;1.92;;
11685;SDS011;5899;51.282;6.094;2023-07-20T08:13:00;2.53;;;2.20;;
11685;SDS011;5899;51.282;6.094;2023-07-20T08:15:38;1.80;;;1.70;;
11685;SDS011;5899;51.282;6.094;2023-07-20T08:18:05;1.80;;;1.70;;
11685;SDS011;5899;51.282;6.094;2023-07-20T08:20:34;2.95;;;2.67;;
11685;SDS011;5899;51.282;6.094;2023-07-20T08:23:05;2.45;;;2.10;;
11685;SDS011;5899;51.282;6.094;2023-07-20T08:25:34;2.35;;;2.13;;
11685;SDS011;5899;51.282;6.094;2023-07-20T08:28:06;2.73;;;2.10;;
11685;SDS011;5899;51.282;6.094;2023-07-20T08:30:40;2.67;;;2.17;;
11685;SDS011;5899;51.282;6.094;2023-07-20T08:33:18;1.88;;;1.70;;
11685;SDS011;5899;51.282;6.094;2023-07-20T08:35:55;1.90;;;1.80;;
11685;SDS011;5899;51.282;6.094;2023-07-20T08:38:35;2.92;;;2.00;;
11685;SDS011;5899;51.282;6.094;2023-07-20T08:41:18;1.70;;;1.60;;
11685;SDS011;5899;51.282;6.094;2023-07-20T08:43:51;1.70;;;1.60;;
11685;SDS011;5899;51.282;6.094;2023-07-20T08:46:25;2.17;;;1.98;;
11685;SDS011;5899;51.282;6.094;2023-07-20T08:48:54;1.83;;;1.67;;
11685;SDS011;5899;51.282;6.094;2023-07-20T08:51:28;2.08;;;1.65;;
11685;SDS011;5899;51.282;6.094;2023-07-20T08:54:01;1.98;;;1.88;;
11685;SDS011;5899;51.282;6.094;2023-07-20T08:56:45;2.20;;;2.00;;
11685;SDS011;5899;51.282;6.094;2023-07-20T08:59:14;2.05;;;1.85;;
11685;SDS011;5899;51.282;6.094;2023-07-20T09:04:40;1.60;;;1.50;;
11685;SDS011;5899;51.282;6.094;2023-07-20T09:07:13;1.67;;;1.58;;
11685;SDS011;5899;51.282;6.094;2023-07-20T09:09:49;2.35;;;1.60;;
11685;SDS011;5899;51.282;6.094;2023-07-20T09:12:25;2.28;;;1.90;;
11685;SDS011;5899;51.282;6.094;2023-07-20T09:14:52;1.90;;;1.75;;
11685;SDS011;5899;51.282;6.094;2023-07-20T09:17:20;1.75;;;1.65;;
11685;SDS011;5899;51.282;6.094;2023-07-20T09:20:09;2.00;;;1.90;;
11685;SDS011;5899;51.282;6.094;2023-07-20T09:22:41;2.67;;;2.03;;
11685;SDS011;5899;51.282;6.094;2023-07-20T09:25:26;1.95;;;1.83;;
11685;SDS011;5899;51.282;6.094;2023-07-20T09:28:03;2.88;;;1.92;;
11685;SDS011;5899;51.282;6.094;2023-07-20T09:33:25;1.98;;;1.80;;
11685;SDS011;5899;51.282;6.094;2023-07-20T09:35:54;2.15;;;1.60;;
11685;SDS011;5899;51.282;6.094;2023-07-20T09:38:29;1.80;;;1.70;;
11685;SDS011;5899;51.282;6.094;2023-07-20T09:41:04;1.88;;;1.70;;
11685;SDS011;5899;51.282;6.094;2023-07-20T09:43:33;2.00;;;1.80;;
11685;SDS011;5899;51.282;6.094;2023-07-20T09:46:01;2.70;;;1.88;;
11685;SDS011;5899;51.282;6.094;2023-07-20T09:48:31;2.38;;;2.17;;
11685;SDS011;5899;51.282;6.094;2023-07-20T09:51:03;2.17;;;1.70;;
11685;SDS011;5899;51.282;6.094;2023-07-20T09:53:32;3.08;;;2.30;;
11685;SDS011;5899;51.282;6.094;2023-07-20T09:56:05;1.75;;;1.60;;
11685;SDS011;5899;51.282;6.094;2023-07-20T09:58:40;1.70;;;1.60;;
11685;SDS011;5899;51.282;6.094;2023-07-20T10:01:13;1.70;;;1.60;;
11685;SDS011;5899;51.282;6.094;2023-07-20T10:04:17;2.40;;;1.60;;
11685;SDS011;5899;51.282;6.094;2023-07-20T10:06:45;1.60;;;1.50;;
11685;SDS011;5899;51.282;6.094;2023-07-20T10:10:57;3.25;;;1.70;;
11685;SDS011;5899;51.282;6.094;2023-07-20T10:15:27;1.90;;;1.80;;
11685;SDS011;5899;51.282;6.094;2023-07-20T10:18:02;3.70;;;1.70;;
11685;SDS011;5899;51.282;6.094;2023-07-20T10:53:35;1.30;;;1.20;;
11685;SDS011;5899;51.282;6.094;2023-07-20T11:00:23;2.00;;;1.40;;
11685;SDS011;5899;51.282;6.094;2023-07-20T11:07:04;1.52;;;1.35;;
11685;SDS011;5899;51.282;6.094;2023-07-20T11:15:04;1.40;;;1.30;;
11685;SDS011;5899;51.282;6.094;2023-07-20T11:17:50;1.40;;;1.30;;
11685;SDS011;5899;51.282;6.094;2023-07-20T11:59:56;1.73;;;1.10;;
11685;SDS011;5899;51.282;6.094;2023-07-20T12:37:21;2.10;;;1.35;;
11685;SDS011;5899;51.282;6.094;2023-07-20T12:49:19;1.30;;;1.20;;
11685;SDS011;5899;51.282;6.094;2023-07-20T12:52:20;1.30;;;1.10;;
11685;SDS011;5899;51.282;6.094;2023-07-20T12:55:08;1.83;;;1.30;;
11685;SDS011;5899;51.282;6.094;2023-07-20T12:57:48;1.23;;;1.13;;
11685;SDS011;5899;51.282;6.094;2023-07-20T13:00:36;1.20;;;1.08;;
11685;SDS011;5899;51.282;6.094;2023-07-20T13:03:31;1.38;;;1.27;;
11685;SDS011;5899;51.282;6.094;2023-07-20T13:27:20;1.35;;;1.25;;
11685;SDS011;5899;51.282;6.094;2023-07-20T13:29:57;3.20;;;1.50;;
11685;SDS011;5899;51.282;6.094;2023-07-20T13:32:32;1.43;;;1.27;;
11685;SDS011;5899;51.282;6.094;2023-07-20T13:35:59;2.15;;;1.17;;
11685;SDS011;5899;51.282;6.094;2023-07-20T13:38:45;1.30;;;1.20;;
11685;SDS011;5899;51.282;6.094;2023-07-20T13:44:48;1.20;;;1.10;;
11685;SDS011;5899;51.282;6.094;2023-07-20T13:47:29;1.35;;;1.23;;
11685;SDS011;5899;51.282;6.094;2023-07-20T13:50:58;1.40;;;1.30;;
11685;SDS011;5899;51.282;6.094;2023-07-20T13:53:20;1.15;;;1.10;;
11685;SDS011;5899;51.282;6.094;2023-07-20T13:55:50;1.27;;;1.17;;
11685;SDS011;5899;51.282;6.094;2023-07-20T13:58:34;1.33;;;1.20;;
11685;SDS011;5899;51.282;6.094;2023-07-20T14:01:21;1.48;;;1.13;;
11685;SDS011;5899;51.282;6.094;2023-07-20T14:04:00;2.03;;;1.40;;
11685;SDS011;5899;51.282;6.094;2023-07-20T14:06:35;1.27;;;1.17;;
11685;SDS011;5899;51.282;6.094;2023-07-20T14:09:03;1.15;;;1.05;;
11685;SDS011;5899;51.282;6.094;2023-07-20T14:14:56;1.20;;;1.10;;
11685;SDS011;5899;51.282;6.094;2023-07-20T14:17:31;1.20;;;1.10;;
11685;SDS011;5899;51.282;6.094;2023-07-20T14:20:18;2.15;;;1.30;;
11685;SDS011;5899;51.282;6.094;2023-07-20T14:28:42;1.30;;;1.20;;
11685;SDS011;5899;51.282;6.094;2023-07-20T14:40:40;1.20;;;1.10;;
11685;SDS011;5899;51.282;6.094;2023-07-20T14:46:25;1.20;;;1.10;;
11685;SDS011;5899;51.282;6.094;2023-07-20T14:49:07;1.40;;;1.30;;
11685;SDS011;5899;51.282;6.094;2023-07-20T14:51:54;3.65;;;1.50;;
11685;SDS011;5899;51.282;6.094;2023-07-20T14:54:30;1.40;;;1.20;;
11685;SDS011;5899;51.282;6.094;2023-07-20T14:57:14;1.27;;;1.17;;
11685;SDS011;5899;51.282;6.094;2023-07-20T15:00:09;1.67;;;1.40;;
11685;SDS011;5899;51.282;6.094;2023-07-20T15:02:51;1.23;;;1.13;;
11685;SDS011;5899;51.282;6.094;2023-07-20T15:08:46;1.42;;;1.33;;
11685;SDS011;5899;51.282;6.094;2023-07-20T15:11:20;1.40;;;1.30;;
11685;SDS011;5899;51.282;6.094;2023-07-20T15:14:14;1.33;;;1.23;;
11685;SDS011;5899;51.282;6.094;2023-07-20T15:22:54;1.42;;;1.23;;
11685;SDS011;5899;51.282;6.094;2023-07-20T15:25:49;1.23;;;1.10;;
11685;SDS011;5899;51.282;6.094;2023-07-20T15:28:46;1.45;;;1.35;;
11685;SDS011;5899;51.282;6.094;2023-07-20T15:31:38;1.80;;;1.30;;
11685;SDS011;5899;51.282;6.094;2023-07-20T15:37:38;1.40;;;1.30;;
11685;SDS011;5899;51.282;6.094;2023-07-20T15:43:33;1.42;;;1.30;;
11685;SDS011;5899;51.282;6.094;2023-07-20T15:57:47;1.30;;;1.20;;
11685;SDS011;5899;51.282;6.094;2023-07-20T16:00:23;1.50;;;1.40;;
11685;SDS011;5899;51.282;6.094;2023-07-20T16:03:26;1.48;;;1.38;;
11685;SDS011;5899;51.282;6.094;2023-07-20T16:06:14;1.52;;;1.20;;
11685;SDS011;5899;51.282;6.094;2023-07-20T16:08:53;2.10;;;1.30;;
11685;SDS011;5899;51.282;6.094;2023-07-20T16:11:38;1.40;;;1.30;;
11685;SDS011;5899;51.282;6.094;2023-07-20T16:17:20;1.40;;;1.30;;
11685;SDS011;5899;51.282;6.094;2023-07-20T16:23:18;1.40;;;1.30;;
11685;SDS011;5899;51.282;6.094;2023-07-20T16:25:52;1.35;;;1.25;;
11685;SDS011;5899;51.282;6.094;2023-07-20T16:28:33;1.33;;;1.23;;
11685;SDS011;5899;51.282;6.094;2023-07-20T16:31:16;2.60;;;1.80;;
11685;SDS011;5899;51.282;6.094;2023-07-20T16:43:08;1.60;;;1.40;;
11685;SDS011;5899;51.282;6.094;2023-07-20T16:46:00;1.40;;;1.30;;
11685;SDS011;5899;51.282;6.094;2023-07-20T16:54:40;2.00;;;1.30;;
11685;SDS011;5899;51.282;6.094;2023-07-20T16:57:25;1.50;;;1.40;;
11685;SDS011;5899;51.282;6.094;2023-07-20T17:00:12;1.98;;;1.35;;
11685;SDS011;5899;51.282;6.094;2023-07-20T17:03:01;1.33;;;1.23;;
11685;SDS011;5899;51.282;6.094;2023-07-20T17:06:47;3.00;;;1.50;;
11685;SDS011;5899;51.282;6.094;2023-07-20T17:08:40;2.17;;;1.57;;
11685;SDS011;5899;51.282;6.094;2023-07-20T17:11:54;1.67;;;1.40;;
11685;SDS011;5899;51.282;6.094;2023-07-20T17:14:21;1.60;;;1.50;;
11685;SDS011;5899;51.282;6.094;2023-07-20T17:29:04;1.70;;;1.60;;
11685;SDS011;5899;51.282;6.094;2023-07-20T17:31:36;1.63;;;1.52;;
11685;SDS011;5899;51.282;6.094;2023-07-20T17:34:09;1.75;;;1.35;;
11685;SDS011;5899;51.282;6.094;2023-07-20T17:37:25;1.77;;;1.67;;
11685;SDS011;5899;51.282;6.094;2023-07-20T17:40:13;1.67;;;1.40;;
11685;SDS011;5899;51.282;6.094;2023-07-20T17:43:01;1.48;;;1.38;;
11685;SDS011;5899;51.282;6.094;2023-07-20T17:45:47;1.50;;;1.23;;
11685;SDS011;5899;51.282;6.094;2023-07-20T17:48:38;1.97;;;1.50;;
11685;SDS011;5899;51.282;6.094;2023-07-20T17:51:09;1.65;;;1.45;;
11685;SDS011;5899;51.282;6.094;2023-07-20T17:53:54;1.70;;;1.60;;
11685;SDS011;5899;51.282;6.094;2023-07-20T17:56:26;1.77;;;1.60;;
11685;SDS011;5899;51.282;6.094;2023-07-20T17:59:14;2.30;;;1.60;;
11685;SDS011;5899;51.282;6.094;2023-07-20T18:02:04;2.08;;;1.60;;
11685;SDS011;5899;51.282;6.094;2023-07-20T18:04:56;1.60;;;1.40;;
11685;SDS011;5899;51.282;6.094;2023-07-20T18:07:32;1.93;;;1.80;;
11685;SDS011;5899;51.282;6.094;2023-07-20T18:10:05;1.65;;;1.55;;
11685;SDS011;5899;51.282;6.094;2023-07-20T18:12:54;2.63;;;1.80;;
11685;SDS011;5899;51.282;6.094;2023-07-20T18:15:21;2.05;;;1.70;;
11685;SDS011;5899;51.282;6.094;2023-07-20T18:18:28;2.15;;;1.95;;
11685;SDS011;5899;51.282;6.094;2023-07-20T18:24:38;2.10;;;1.90;;
11685;SDS011;5899;51.282;6.094;2023-07-20T18:27:05;2.10;;;1.90;;
11685;SDS011;5899;51.282;6.094;2023-07-20T18:29:58;2.53;;;1.70;;
11685;SDS011;5899;51.282;6.094;2023-07-20T18:32:49;1.70;;;1.60;;
11685;SDS011;5899;51.282;6.094;2023-07-20T18:35:31;1.92;;;1.83;;
11685;SDS011;5899;51.282;6.094;2023-07-20T18:38:22;2.20;;;1.55;;
11685;SDS011;5899;51.282;6.094;2023-07-20T18:41:11;1.95;;;1.55;;
11685;SDS011;5899;51.282;6.094;2023-07-20T18:43:44;1.40;;;1.30;;
11685;SDS011;5899;51.282;6.094;2023-07-20T18:46:41;1.92;;;1.73;;
11685;SDS011;5899;51.282;6.094;2023-07-20T18:49:41;4.07;;;1.67;;
11685;SDS011;5899;51.282;6.094;2023-07-20T19:10:13;2.30;;;1.80;;
11685;SDS011;5899;51.282;6.094;2023-07-20T19:12:42;2.30;;;2.10;;
11685;SDS011;5899;51.282;6.094;2023-07-20T19:15:30;3.72;;;2.38;;
11685;SDS011;5899;51.282;6.094;2023-07-20T19:18:28;2.30;;;2.10;;
11685;SDS011;5899;51.282;6.094;2023-07-20T19:24:08;2.15;;;1.95;;
11685;SDS011;5899;51.282;6.094;2023-07-20T19:32:44;3.47;;;2.63;;
11685;SDS011;5899;51.282;6.094;2023-07-20T19:42:50;3.85;;;2.67;;
11685;SDS011;5899;51.282;6.094;2023-07-20T20:06:15;3.08;;;2.80;;
11685;SDS011;5899;51.282;6.094;2023-07-20T20:12:42;3.70;;;2.92;;
11685;SDS011;5899;51.282;6.094;2023-07-20T20:15:12;3.05;;;2.85;;
11685;SDS011;5899;51.282;6.094;2023-07-20T20:18:11;2.97;;;2.78;;
11685;SDS011;5899;51.282;6.094;2023-07-20T20:35:41;3.65;;;3.33;;
11685;SDS011;5899;51.282;6.094;2023-07-20T20:38:37;3.43;;;3.13;;
11685;SDS011;5899;51.282;6.094;2023-07-20T20:41:33;3.30;;;3.00;;
11685;SDS011;5899;51.282;6.094;2023-07-20T20:44:58;3.35;;;3.05;;
11685;SDS011;5899;51.282;6.094;2023-07-20T21:26:56;3.55;;;3.25;;
11685;SDS011;5899;51.282;6.094;2023-07-20T21:32:37;3.58;;;3.25;;
11685;SDS011;5899;51.282;6.094;2023-07-20T21:35:19;3.83;;;3.17;;
11685;SDS011;5899;51.282;6.094;2023-07-20T21:38:03;3.77;;;3.47;;
11685;SDS011;5899;51.282;6.094;2023-07-20T21:50:17;3.47;;;3.10;;
11685;SDS011;5899;51.282;6.094;2023-07-20T21:53:08;3.60;;;3.30;;
11685;SDS011;5899;51.282;6.094;2023-07-20T21:55:51;3.63;;;3.28;;
11685;SDS011;5899;51.282;6.094;2023-07-20T21:58:27;5.20;;;3.60;;
11685;SDS011;5899;51.282;6.094;2023-07-20T22:40:41;4.70;;;4.30;;
11685;SDS011;5899;51.282;6.094;2023-07-20T22:43:11;5.32;;;4.90;;
11685;SDS011;5899;51.282;6.094;2023-07-20T22:46:15;5.03;;;4.63;;
11685;SDS011;5899;51.282;6.094;2023-07-20T22:48:49;5.28;;;4.78;;
11685;SDS011;5899;51.282;6.094;2023-07-20T22:51:36;5.03;;;4.60;;
11685;SDS011;5899;51.282;6.094;2023-07-20T22:54:23;5.18;;;4.75;;
11685;SDS011;5899;51.282;6.094;2023-07-20T23:39:22;4.10;;;3.80;;
11685;SDS011;5899;51.282;6.094;2023-07-20T23:57:07;4.75;;;4.25;;
